sensor_id;sensor_type;location;lat;lon;timestamp;P1;durP1;ratioP1;P2;durP2;ratioP2
35644;SDS011;21764;52.042;6.830;2023-09-07T00:01:06;7.88;;;4.95;;
35644;SDS011;21764;52.042;6.830;2023-09-07T00:06:07;8.68;;;5.03;;
35644;SDS011;21764;52.042;6.830;2023-09-07T00:11:08;8.95;;;4.90;;
35644;SDS011;21764;52.042;6.830;2023-09-07T00:16:10;7.35;;;5.25;;
35644;SDS011;21764;52.042;6.830;2023-09-07T00:21:10;6.72;;;4.70;;
35644;SDS011;21764;52.042;6.830;2023-09-07T00:26:11;9.15;;;5.00;;
35644;SDS011;21764;52.042;6.830;2023-09-07T00:31:12;7.38;;;5.20;;
35644;SDS011;21764;52.042;6.830;2023-09-07T00:36:13;6.80;;;5.00;;
35644;SDS011;21764;52.042;6.830;2023-09-07T00:41:14;10.45;;;5.18;;
35644;SDS011;21764;52.042;6.830;2023-09-07T00:46:14;11.23;;;5.32;;
35644;SDS011;21764;52.042;6.830;2023-09-07T00:51:15;7.45;;;5.38;;
35644;SDS011;21764;52.042;6.830;2023-09-07T00:56:16;7.35;;;5.32;;
35644;SDS011;21764;52.042;6.830;2023-09-07T01:01:17;7.50;;;5.43;;
35644;SDS011;21764;52.042;6.830;2023-09-07T01:06:20;9.35;;;5.13;;
35644;SDS011;21764;52.042;6.830;2023-09-07T01:11:26;10.27;;;5.63;;
35644;SDS011;21764;52.042;6.830;2023-09-07T01:16:35;8.43;;;5.13;;
35644;SDS011;21764;52.042;6.830;2023-09-07T01:21:38;8.43;;;5.20;;
35644;SDS011;21764;52.042;6.830;2023-09-07T01:26:39;8.73;;;5.13;;
35644;SDS011;21764;52.042;6.830;2023-09-07T01:31:40;11.07;;;5.55;;
35644;SDS011;21764;52.042;6.830;2023-09-07T01:36:40;8.15;;;5.32;;
35644;SDS011;21764;52.042;6.830;2023-09-07T01:41:41;8.55;;;5.63;;
35644;SDS011;21764;52.042;6.830;2023-09-07T01:46:42;11.38;;;5.57;;
35644;SDS011;21764;52.042;6.830;2023-09-07T01:51:43;10.30;;;5.15;;
35644;SDS011;21764;52.042;6.830;2023-09-07T01:56:43;7.10;;;5.53;;
35644;SDS011;21764;52.042;6.830;2023-09-07T02:01:44;13.10;;;5.70;;
35644;SDS011;21764;52.042;6.830;2023-09-07T02:06:44;12.02;;;6.05;;
35644;SDS011;21764;52.042;6.830;2023-09-07T02:11:45;9.48;;;5.40;;
35644;SDS011;21764;52.042;6.830;2023-09-07T02:16:46;7.75;;;5.70;;
35644;SDS011;21764;52.042;6.830;2023-09-07T02:21:46;10.15;;;5.63;;
35644;SDS011;21764;52.042;6.830;2023-09-07T02:26:47;10.88;;;5.85;;
35644;SDS011;21764;52.042;6.830;2023-09-07T02:31:48;9.75;;;5.57;;
35644;SDS011;21764;52.042;6.830;2023-09-07T02:36:48;13.57;;;6.35;;
35644;SDS011;21764;52.042;6.830;2023-09-07T02:41:49;8.75;;;6.13;;
35644;SDS011;21764;52.042;6.830;2023-09-07T02:46:50;8.10;;;6.57;;
35644;SDS011;21764;52.042;6.830;2023-09-07T02:51:50;10.10;;;6.18;;
35644;SDS011;21764;52.042;6.830;2023-09-07T02:56:51;10.55;;;6.07;;
35644;SDS011;21764;52.042;6.830;2023-09-07T03:01:52;12.10;;;6.28;;
35644;SDS011;21764;52.042;6.830;2023-09-07T03:06:52;8.25;;;6.57;;
35644;SDS011;21764;52.042;6.830;2023-09-07T03:11:53;11.05;;;6.80;;
35644;SDS011;21764;52.042;6.830;2023-09-07T03:16:54;17.55;;;6.88;;
35644;SDS011;21764;52.042;6.830;2023-09-07T03:21:58;9.15;;;6.57;;
35644;SDS011;21764;52.042;6.830;2023-09-07T03:26:59;12.48;;;6.43;;
35644;SDS011;21764;52.042;6.830;2023-09-07T03:32:00;14.07;;;6.75;;
35644;SDS011;21764;52.042;6.830;2023-09-07T03:37:01;13.05;;;7.38;;
35644;SDS011;21764;52.042;6.830;2023-09-07T03:42:02;9.40;;;7.10;;
35644;SDS011;21764;52.042;6.830;2023-09-07T03:47:03;12.30;;;7.10;;
35644;SDS011;21764;52.042;6.830;2023-09-07T03:52:04;12.77;;;7.53;;
35644;SDS011;21764;52.042;6.830;2023-09-07T03:57:04;12.75;;;7.72;;
35644;SDS011;21764;52.042;6.830;2023-09-07T04:02:05;13.65;;;8.15;;
35644;SDS011;21764;52.042;6.830;2023-09-07T04:07:07;12.05;;;8.02;;
35644;SDS011;21764;52.042;6.830;2023-09-07T04:12:07;14.10;;;8.82;;
35644;SDS011;21764;52.042;6.830;2023-09-07T04:17:08;13.98;;;8.50;;
35644;SDS011;21764;52.042;6.830;2023-09-07T04:22:10;11.68;;;8.80;;
35644;SDS011;21764;52.042;6.830;2023-09-07T04:27:11;11.38;;;8.38;;
35644;SDS011;21764;52.042;6.830;2023-09-07T04:32:12;15.00;;;9.10;;
35644;SDS011;21764;52.042;6.830;2023-09-07T04:37:12;17.88;;;9.48;;
35644;SDS011;21764;52.042;6.830;2023-09-07T04:42:13;18.25;;;9.30;;
35644;SDS011;21764;52.042;6.830;2023-09-07T04:47:13;14.07;;;9.35;;
35644;SDS011;21764;52.042;6.830;2023-09-07T04:52:15;14.68;;;9.70;;
35644;SDS011;21764;52.042;6.830;2023-09-07T04:57:16;14.45;;;9.02;;
35644;SDS011;21764;52.042;6.830;2023-09-07T05:02:18;15.73;;;10.80;;
35644;SDS011;21764;52.042;6.830;2023-09-07T05:07:19;14.95;;;9.32;;
35644;SDS011;21764;52.042;6.830;2023-09-07T05:12:19;13.15;;;9.75;;
35644;SDS011;21764;52.042;6.830;2023-09-07T05:17:20;14.82;;;8.80;;
35644;SDS011;21764;52.042;6.830;2023-09-07T05:22:21;12.88;;;7.80;;
35644;SDS011;21764;52.042;6.830;2023-09-07T05:27:22;9.63;;;7.07;;
35644;SDS011;21764;52.042;6.830;2023-09-07T05:32:22;13.25;;;7.38;;
35644;SDS011;21764;52.042;6.830;2023-09-07T05:37:23;13.25;;;7.10;;
35644;SDS011;21764;52.042;6.830;2023-09-07T05:42:24;13.57;;;6.95;;
35644;SDS011;21764;52.042;6.830;2023-09-07T05:47:26;9.30;;;6.18;;
35644;SDS011;21764;52.042;6.830;2023-09-07T05:52:26;9.40;;;6.25;;
35644;SDS011;21764;52.042;6.830;2023-09-07T05:57:27;9.88;;;6.10;;
35644;SDS011;21764;52.042;6.830;2023-09-07T06:02:28;13.73;;;5.63;;
35644;SDS011;21764;52.042;6.830;2023-09-07T06:07:28;11.85;;;5.32;;
35644;SDS011;21764;52.042;6.830;2023-09-07T06:12:29;7.38;;;5.60;;
35644;SDS011;21764;52.042;6.830;2023-09-07T06:17:30;9.23;;;5.20;;
35644;SDS011;21764;52.042;6.830;2023-09-07T06:22:30;10.43;;;5.22;;
35644;SDS011;21764;52.042;6.830;2023-09-07T06:27:31;9.75;;;5.07;;
35644;SDS011;21764;52.042;6.830;2023-09-07T06:32:32;13.07;;;5.30;;
35644;SDS011;21764;52.042;6.830;2023-09-07T06:37:40;15.35;;;5.00;;
35644;SDS011;21764;52.042;6.830;2023-09-07T06:42:43;7.45;;;5.05;;
35644;SDS011;21764;52.042;6.830;2023-09-07T06:47:44;7.75;;;4.85;;
35644;SDS011;21764;52.042;6.830;2023-09-07T06:52:45;9.40;;;4.72;;
35644;SDS011;21764;52.042;6.830;2023-09-07T06:57:45;11.40;;;4.78;;
35644;SDS011;21764;52.042;6.830;2023-09-07T07:02:46;9.27;;;4.20;;
35644;SDS011;21764;52.042;6.830;2023-09-07T07:07:47;12.65;;;4.70;;
35644;SDS011;21764;52.042;6.830;2023-09-07T07:12:47;6.75;;;4.43;;
35644;SDS011;21764;52.042;6.830;2023-09-07T07:17:48;9.05;;;4.00;;
35644;SDS011;21764;52.042;6.830;2023-09-07T07:22:49;7.63;;;4.30;;
35644;SDS011;21764;52.042;6.830;2023-09-07T07:27:49;8.20;;;4.43;;
35644;SDS011;21764;52.042;6.830;2023-09-07T07:32:50;8.73;;;3.83;;
35644;SDS011;21764;52.042;6.830;2023-09-07T07:37:52;5.65;;;4.13;;
35644;SDS011;21764;52.042;6.830;2023-09-07T07:42:52;11.32;;;4.18;;
35644;SDS011;21764;52.042;6.830;2023-09-07T07:47:53;5.53;;;3.90;;
35644;SDS011;21764;52.042;6.830;2023-09-07T07:52:54;9.65;;;4.30;;
35644;SDS011;21764;52.042;6.830;2023-09-07T07:57:54;12.35;;;3.83;;
35644;SDS011;21764;52.042;6.830;2023-09-07T08:02:55;5.20;;;3.97;;
35644;SDS011;21764;52.042;6.830;2023-09-07T08:07:56;8.00;;;4.03;;
35644;SDS011;21764;52.042;6.830;2023-09-07T08:12:57;9.48;;;3.83;;
35644;SDS011;21764;52.042;6.830;2023-09-07T08:17:57;7.70;;;4.30;;
35644;SDS011;21764;52.042;6.830;2023-09-07T08:22:58;8.85;;;4.10;;
35644;SDS011;21764;52.042;6.830;2023-09-07T08:27:59;11.15;;;4.00;;
35644;SDS011;21764;52.042;6.830;2023-09-07T08:33:01;8.35;;;4.43;;
35644;SDS011;21764;52.042;6.830;2023-09-07T08:43:08;5.85;;;3.85;;
35644;SDS011;21764;52.042;6.830;2023-09-07T08:48:15;14.93;;;3.90;;
35644;SDS011;21764;52.042;6.830;2023-09-07T08:53:21;11.10;;;4.88;;
35644;SDS011;21764;52.042;6.830;2023-09-07T09:03:29;8.50;;;4.00;;
35644;SDS011;21764;52.042;6.830;2023-09-07T09:08:52;5.63;;;3.42;;
35644;SDS011;21764;52.042;6.830;2023-09-07T09:13:55;6.30;;;3.90;;
35644;SDS011;21764;52.042;6.830;2023-09-07T09:18:57;7.07;;;4.45;;
35644;SDS011;21764;52.042;6.830;2023-09-07T09:23:57;5.17;;;3.77;;
35644;SDS011;21764;52.042;6.830;2023-09-07T09:29:00;7.57;;;3.65;;
35644;SDS011;21764;52.042;6.830;2023-09-07T09:39:02;6.55;;;3.70;;
35644;SDS011;21764;52.042;6.830;2023-09-07T09:44:05;8.50;;;3.55;;
35644;SDS011;21764;52.042;6.830;2023-09-07T09:49:07;10.63;;;3.40;;
35644;SDS011;21764;52.042;6.830;2023-09-07T09:54:11;6.47;;;3.08;;
35644;SDS011;21764;52.042;6.830;2023-09-07T09:59:17;7.55;;;3.28;;
35644;SDS011;21764;52.042;6.830;2023-09-07T10:04:21;6.23;;;2.93;;
35644;SDS011;21764;52.042;6.830;2023-09-07T10:09:29;4.93;;;3.15;;
35644;SDS011;21764;52.042;6.830;2023-09-07T10:14:39;10.93;;;3.40;;
35644;SDS011;21764;52.042;6.830;2023-09-07T10:19:41;9.35;;;3.20;;
35644;SDS011;21764;52.042;6.830;2023-09-07T10:24:56;4.00;;;3.28;;
35644;SDS011;21764;52.042;6.830;2023-09-07T10:30:05;4.03;;;3.10;;
35644;SDS011;21764;52.042;6.830;2023-09-07T10:35:22;5.53;;;3.53;;
35644;SDS011;21764;52.042;6.830;2023-09-07T10:40:28;5.78;;;3.67;;
35644;SDS011;21764;52.042;6.830;2023-09-07T10:45:29;3.67;;;2.92;;
35644;SDS011;21764;52.042;6.830;2023-09-07T10:50:29;6.00;;;3.15;;
35644;SDS011;21764;52.042;6.830;2023-09-07T10:55:35;8.52;;;3.67;;
35644;SDS011;21764;52.042;6.830;2023-09-07T11:00:38;11.48;;;3.53;;
35644;SDS011;21764;52.042;6.830;2023-09-07T11:05:39;5.38;;;3.42;;
35644;SDS011;21764;52.042;6.830;2023-09-07T11:10:43;7.63;;;4.07;;
35644;SDS011;21764;52.042;6.830;2023-09-07T11:15:44;7.57;;;3.72;;
35644;SDS011;21764;52.042;6.830;2023-09-07T11:20:45;4.35;;;3.35;;
35644;SDS011;21764;52.042;6.830;2023-09-07T11:25:49;5.47;;;3.90;;
35644;SDS011;21764;52.042;6.830;2023-09-07T11:35:54;5.63;;;4.38;;
35644;SDS011;21764;52.042;6.830;2023-09-07T11:40:55;7.53;;;3.95;;
35644;SDS011;21764;52.042;6.830;2023-09-07T11:45:56;6.70;;;4.03;;
35644;SDS011;21764;52.042;6.830;2023-09-07T11:50:57;5.22;;;3.47;;
35644;SDS011;21764;52.042;6.830;2023-09-07T11:55:58;9.52;;;4.03;;
35644;SDS011;21764;52.042;6.830;2023-09-07T12:00:59;6.38;;;4.55;;
35644;SDS011;21764;52.042;6.830;2023-09-07T12:06:00;7.35;;;4.10;;
35644;SDS011;21764;52.042;6.830;2023-09-07T12:11:01;8.73;;;4.32;;
35644;SDS011;21764;52.042;6.830;2023-09-07T12:16:02;7.93;;;3.58;;
35644;SDS011;21764;52.042;6.830;2023-09-07T12:21:05;5.97;;;3.80;;
35644;SDS011;21764;52.042;6.830;2023-09-07T12:26:07;8.85;;;4.00;;
35644;SDS011;21764;52.042;6.830;2023-09-07T12:31:08;7.75;;;4.50;;
35644;SDS011;21764;52.042;6.830;2023-09-07T12:36:10;10.18;;;3.65;;
35644;SDS011;21764;52.042;6.830;2023-09-07T12:41:11;6.63;;;5.43;;
35644;SDS011;21764;52.042;6.830;2023-09-07T12:46:12;9.05;;;4.38;;
35644;SDS011;21764;52.042;6.830;2023-09-07T12:51:13;5.95;;;3.92;;
35644;SDS011;21764;52.042;6.830;2023-09-07T12:56:14;7.53;;;4.28;;
35644;SDS011;21764;52.042;6.830;2023-09-07T13:01:15;7.13;;;3.92;;
35644;SDS011;21764;52.042;6.830;2023-09-07T13:06:18;5.82;;;4.10;;
35644;SDS011;21764;52.042;6.830;2023-09-07T13:11:19;7.93;;;3.78;;
35644;SDS011;21764;52.042;6.830;2023-09-07T13:16:20;6.95;;;4.40;;
35644;SDS011;21764;52.042;6.830;2023-09-07T13:21:21;7.40;;;4.28;;
35644;SDS011;21764;52.042;6.830;2023-09-07T13:26:22;9.48;;;3.80;;
35644;SDS011;21764;52.042;6.830;2023-09-07T13:31:22;6.88;;;3.92;;
35644;SDS011;21764;52.042;6.830;2023-09-07T13:36:23;12.60;;;4.38;;
35644;SDS011;21764;52.042;6.830;2023-09-07T13:41:24;8.77;;;4.15;;
35644;SDS011;21764;52.042;6.830;2023-09-07T13:46:24;6.13;;;3.95;;
35644;SDS011;21764;52.042;6.830;2023-09-07T13:51:25;13.02;;;4.00;;
35644;SDS011;21764;52.042;6.830;2023-09-07T13:56:26;6.82;;;3.70;;
35644;SDS011;21764;52.042;6.830;2023-09-07T14:01:27;7.78;;;3.97;;
35644;SDS011;21764;52.042;6.830;2023-09-07T14:06:27;6.63;;;4.05;;
35644;SDS011;21764;52.042;6.830;2023-09-07T14:11:28;8.60;;;3.70;;
35644;SDS011;21764;52.042;6.830;2023-09-07T14:16:29;7.45;;;3.80;;
35644;SDS011;21764;52.042;6.830;2023-09-07T14:21:30;8.35;;;3.67;;
35644;SDS011;21764;52.042;6.830;2023-09-07T14:26:30;8.48;;;4.22;;
35644;SDS011;21764;52.042;6.830;2023-09-07T14:31:32;6.10;;;3.75;;
35644;SDS011;21764;52.042;6.830;2023-09-07T14:36:32;7.10;;;4.22;;
35644;SDS011;21764;52.042;6.830;2023-09-07T14:41:33;6.20;;;3.75;;
35644;SDS011;21764;52.042;6.830;2023-09-07T14:46:34;8.35;;;3.78;;
35644;SDS011;21764;52.042;6.830;2023-09-07T14:51:35;8.50;;;3.80;;
35644;SDS011;21764;52.042;6.830;2023-09-07T14:56:35;6.50;;;3.70;;
35644;SDS011;21764;52.042;6.830;2023-09-07T15:01:37;6.15;;;3.60;;
35644;SDS011;21764;52.042;6.830;2023-09-07T15:06:38;10.68;;;3.70;;
35644;SDS011;21764;52.042;6.830;2023-09-07T15:11:39;7.80;;;3.67;;
35644;SDS011;21764;52.042;6.830;2023-09-07T15:16:39;7.50;;;3.60;;
35644;SDS011;21764;52.042;6.830;2023-09-07T15:21:40;3.97;;;3.40;;
35644;SDS011;21764;52.042;6.830;2023-09-07T15:26:41;7.82;;;3.75;;
35644;SDS011;21764;52.042;6.830;2023-09-07T15:31:43;8.30;;;3.65;;
35644;SDS011;21764;52.042;6.830;2023-09-07T15:36:43;8.35;;;3.55;;
35644;SDS011;21764;52.042;6.830;2023-09-07T15:41:44;4.90;;;3.58;;
35644;SDS011;21764;52.042;6.830;2023-09-07T15:46:45;7.22;;;3.63;;
35644;SDS011;21764;52.042;6.830;2023-09-07T15:51:45;6.18;;;3.30;;
35644;SDS011;21764;52.042;6.830;2023-09-07T15:56:46;7.57;;;3.63;;
35644;SDS011;21764;52.042;6.830;2023-09-07T16:01:47;10.27;;;3.88;;
35644;SDS011;21764;52.042;6.830;2023-09-07T16:06:47;7.40;;;3.88;;
35644;SDS011;21764;52.042;6.830;2023-09-07T16:11:48;9.18;;;3.42;;
35644;SDS011;21764;52.042;6.830;2023-09-07T16:16:49;7.03;;;3.35;;
35644;SDS011;21764;52.042;6.830;2023-09-07T16:21:49;9.13;;;3.80;;
35644;SDS011;21764;52.042;6.830;2023-09-07T16:26:50;8.60;;;3.63;;
35644;SDS011;21764;52.042;6.830;2023-09-07T16:31:51;6.10;;;3.50;;
35644;SDS011;21764;52.042;6.830;2023-09-07T16:36:51;9.23;;;4.15;;
35644;SDS011;21764;52.042;6.830;2023-09-07T16:41:52;4.38;;;3.70;;
35644;SDS011;21764;52.042;6.830;2023-09-07T16:46:53;10.15;;;5.38;;
35644;SDS011;21764;52.042;6.830;2023-09-07T16:51:53;4.70;;;3.60;;
35644;SDS011;21764;52.042;6.830;2023-09-07T16:56:54;5.07;;;3.85;;
35644;SDS011;21764;52.042;6.830;2023-09-07T17:01:55;11.90;;;6.05;;
35644;SDS011;21764;52.042;6.830;2023-09-07T17:06:55;5.63;;;4.07;;
35644;SDS011;21764;52.042;6.830;2023-09-07T17:11:58;6.57;;;3.70;;
35644;SDS011;21764;52.042;6.830;2023-09-07T17:16:59;14.63;;;3.97;;
35644;SDS011;21764;52.042;6.830;2023-09-07T17:22:00;13.57;;;3.92;;
35644;SDS011;21764;52.042;6.830;2023-09-07T17:27:00;6.65;;;3.75;;
35644;SDS011;21764;52.042;6.830;2023-09-07T17:32:01;9.60;;;3.85;;
35644;SDS011;21764;52.042;6.830;2023-09-07T17:37:03;12.55;;;3.97;;
35644;SDS011;21764;52.042;6.830;2023-09-07T17:42:05;14.60;;;4.57;;
35644;SDS011;21764;52.042;6.830;2023-09-07T17:47:06;6.55;;;4.03;;
35644;SDS011;21764;52.042;6.830;2023-09-07T17:52:06;9.13;;;3.97;;
35644;SDS011;21764;52.042;6.830;2023-09-07T17:57:07;9.35;;;4.50;;
35644;SDS011;21764;52.042;6.830;2023-09-07T18:02:21;6.57;;;4.38;;
35644;SDS011;21764;52.042;6.830;2023-09-07T18:07:23;7.38;;;4.50;;
35644;SDS011;21764;52.042;6.830;2023-09-07T18:12:24;4.70;;;3.75;;
35644;SDS011;21764;52.042;6.830;2023-09-07T18:17:24;11.30;;;4.45;;
35644;SDS011;21764;52.042;6.830;2023-09-07T18:22:27;9.52;;;4.50;;
35644;SDS011;21764;52.042;6.830;2023-09-07T18:27:27;13.20;;;4.50;;
35644;SDS011;21764;52.042;6.830;2023-09-07T18:32:28;10.55;;;4.07;;
35644;SDS011;21764;52.042;6.830;2023-09-07T18:37:29;7.85;;;4.70;;
35644;SDS011;21764;52.042;6.830;2023-09-07T18:42:32;6.40;;;4.67;;
35644;SDS011;21764;52.042;6.830;2023-09-07T18:47:33;13.23;;;4.10;;
35644;SDS011;21764;52.042;6.830;2023-09-07T18:52:36;5.18;;;4.35;;
35644;SDS011;21764;52.042;6.830;2023-09-07T18:57:37;14.73;;;4.53;;
35644;SDS011;21764;52.042;6.830;2023-09-07T19:02:38;20.60;;;12.27;;
35644;SDS011;21764;52.042;6.830;2023-09-07T19:07:39;7.05;;;5.43;;
35644;SDS011;21764;52.042;6.830;2023-09-07T19:12:40;6.35;;;4.53;;
35644;SDS011;21764;52.042;6.830;2023-09-07T19:17:41;8.85;;;5.38;;
35644;SDS011;21764;52.042;6.830;2023-09-07T19:22:42;8.65;;;5.13;;
35644;SDS011;21764;52.042;6.830;2023-09-07T19:27:43;10.85;;;6.60;;
35644;SDS011;21764;52.042;6.830;2023-09-07T19:32:43;10.95;;;5.80;;
35644;SDS011;21764;52.042;6.830;2023-09-07T19:37:44;12.85;;;6.85;;
35644;SDS011;21764;52.042;6.830;2023-09-07T19:42:45;8.23;;;4.97;;
35644;SDS011;21764;52.042;6.830;2023-09-07T19:47:46;12.57;;;4.68;;
35644;SDS011;21764;52.042;6.830;2023-09-07T19:52:46;10.38;;;5.00;;
35644;SDS011;21764;52.042;6.830;2023-09-07T19:57:47;8.05;;;4.68;;
35644;SDS011;21764;52.042;6.830;2023-09-07T20:02:48;6.13;;;4.45;;
35644;SDS011;21764;52.042;6.830;2023-09-07T20:07:49;5.43;;;4.60;;
35644;SDS011;21764;52.042;6.830;2023-09-07T20:12:50;14.65;;;5.88;;
35644;SDS011;21764;52.042;6.830;2023-09-07T20:17:54;7.97;;;5.35;;
35644;SDS011;21764;52.042;6.830;2023-09-07T20:22:55;9.27;;;6.35;;
35644;SDS011;21764;52.042;6.830;2023-09-07T20:27:55;9.98;;;5.30;;
35644;SDS011;21764;52.042;6.830;2023-09-07T20:32:56;8.60;;;4.97;;
35644;SDS011;21764;52.042;6.830;2023-09-07T20:37:57;10.45;;;5.30;;
35644;SDS011;21764;52.042;6.830;2023-09-07T20:42:58;10.80;;;4.80;;
35644;SDS011;21764;52.042;6.830;2023-09-07T20:48:03;5.60;;;4.60;;
35644;SDS011;21764;52.042;6.830;2023-09-07T20:53:04;6.18;;;4.95;;
35644;SDS011;21764;52.042;6.830;2023-09-07T20:58:05;10.55;;;5.20;;
35644;SDS011;21764;52.042;6.830;2023-09-07T21:03:06;11.38;;;5.68;;
35644;SDS011;21764;52.042;6.830;2023-09-07T21:08:07;13.85;;;5.30;;
35644;SDS011;21764;52.042;6.830;2023-09-07T21:13:07;10.20;;;5.10;;
35644;SDS011;21764;52.042;6.830;2023-09-07T21:18:08;6.95;;;4.75;;
35644;SDS011;21764;52.042;6.830;2023-09-07T21:23:09;8.35;;;5.25;;
35644;SDS011;21764;52.042;6.830;2023-09-07T21:28:11;12.15;;;5.32;;
35644;SDS011;21764;52.042;6.830;2023-09-07T21:33:12;7.88;;;5.13;;
35644;SDS011;21764;52.042;6.830;2023-09-07T21:38:12;9.65;;;5.57;;
35644;SDS011;21764;52.042;6.830;2023-09-07T21:43:13;6.97;;;5.20;;
35644;SDS011;21764;52.042;6.830;2023-09-07T21:48:15;8.20;;;5.55;;
35644;SDS011;21764;52.042;6.830;2023-09-07T21:53:16;7.88;;;5.30;;
35644;SDS011;21764;52.042;6.830;2023-09-07T21:58:16;7.50;;;5.43;;
35644;SDS011;21764;52.042;6.830;2023-09-07T22:03:17;8.32;;;5.60;;
35644;SDS011;21764;52.042;6.830;2023-09-07T22:08:18;15.93;;;5.90;;
35644;SDS011;21764;52.042;6.830;2023-09-07T22:13:18;12.95;;;6.07;;
35644;SDS011;21764;52.042;6.830;2023-09-07T22:18:19;11.65;;;6.15;;
35644;SDS011;21764;52.042;6.830;2023-09-07T22:23:20;9.52;;;5.93;;
35644;SDS011;21764;52.042;6.830;2023-09-07T22:28:21;11.25;;;5.78;;
35644;SDS011;21764;52.042;6.830;2023-09-07T22:33:22;9.55;;;6.05;;
35644;SDS011;21764;52.042;6.830;2023-09-07T22:38:22;8.02;;;5.90;;
35644;SDS011;21764;52.042;6.830;2023-09-07T22:43:24;8.13;;;5.78;;
35644;SDS011;21764;52.042;6.830;2023-09-07T22:48:25;8.35;;;6.55;;
35644;SDS011;21764;52.042;6.830;2023-09-07T22:53:25;11.65;;;6.65;;
35644;SDS011;21764;52.042;6.830;2023-09-07T22:58:26;11.55;;;6.25;;
35644;SDS011;21764;52.042;6.830;2023-09-07T23:03:27;9.95;;;5.70;;
35644;SDS011;21764;52.042;6.830;2023-09-07T23:08:28;10.48;;;6.00;;
35644;SDS011;21764;52.042;6.830;2023-09-07T23:13:31;8.30;;;6.43;;
35644;SDS011;21764;52.042;6.830;2023-09-07T23:18:34;12.50;;;6.25;;
35644;SDS011;21764;52.042;6.830;2023-09-07T23:23:35;8.68;;;6.40;;
35644;SDS011;21764;52.042;6.830;2023-09-07T23:28:39;12.82;;;7.03;;
35644;SDS011;21764;52.042;6.830;2023-09-07T23:33:40;11.82;;;6.88;;
35644;SDS011;21764;52.042;6.830;2023-09-07T23:38:40;9.88;;;6.85;;
35644;SDS011;21764;52.042;6.830;2023-09-07T23:43:41;14.80;;;7.50;;
35644;SDS011;21764;52.042;6.830;2023-09-07T23:48:42;12.40;;;7.28;;
35644;SDS011;21764;52.042;6.830;2023-09-07T23:53:43;12.68;;;7.22;;
35644;SDS011;21764;52.042;6.830;2023-09-07T23:58:43;13.32;;;7.95;;
